Turner, Indiana
Current Conditions -  °F | °C
As of 12:46 PM on Wednesday 26 Nov 2014 (Local Time) from KHUF Reporting Station
Broken Clouds Broken Clouds  
Wind Chill: 24°   Ceiling: 1500
Heat Index: 29°   Visibility: 10mi
Dew Point: 22°   Wind: 5mph
Humidity: 75%   Direction: 150°SSE
Pressure: 30.1"   Gusts: NA
Location:  39.5158°N, 87.1262°W
Report Text: KHUF 261746Z 15004KT 10SM BKN015 M02/M06 A3010 RMK AO2 T10171056
Loading
Personal Weather Stations






























Interactive Weather Map New forecast layout! Learn more

10-Day Weather Forecast

Advertisements
Track Severe Weather on mobile